createdAt,value
2019-04-30T00:00:25.837Z,6.30
2019-04-30T00:02:59.602Z,6.30
2019-04-30T00:05:25.208Z,6.30
2019-04-30T00:07:50.813Z,6.20
2019-04-30T00:10:17.615Z,6.20
2019-04-30T00:12:43.150Z,6.20
2019-04-30T00:15:11.013Z,6.20
2019-04-30T00:17:35.949Z,6.20
2019-04-30T00:20:01.582Z,6.10
2019-04-30T00:22:33.784Z,6.10
2019-04-30T00:24:55.672Z,6.10
2019-04-30T00:27:25.689Z,6.00
2019-04-30T00:29:48.239Z,6.00
2019-04-30T00:32:13.682Z,6.00
2019-04-30T00:34:39.505Z,6.00
2019-04-30T00:37:07.378Z,6.00
2019-04-30T00:39:32.162Z,5.90
2019-04-30T00:41:57.506Z,5.90
2019-04-30T00:44:24.781Z,5.90
2019-04-30T00:46:50.934Z,5.90
2019-04-30T00:49:22.941Z,5.90
2019-04-30T00:51:45.278Z,5.80
2019-04-30T00:54:10.237Z,5.80
2019-04-30T00:56:35.647Z,5.80
2019-04-30T00:59:02.691Z,5.80
2019-04-30T01:02:06.059Z,5.80
2019-04-30T01:04:39.552Z,5.70
2019-04-30T01:07:08.616Z,5.70
2019-04-30T01:09:32.486Z,5.70
2019-04-30T01:11:57.842Z,5.60
2019-04-30T01:14:27.051Z,5.60
2019-04-30T01:16:50.200Z,5.60
2019-04-30T01:19:27.553Z,5.60
2019-04-30T01:21:46.973Z,5.60
2019-04-30T01:24:09.634Z,5.50
2019-04-30T01:26:35.370Z,5.50
2019-04-30T01:29:02.192Z,5.50
2019-04-30T01:31:31.637Z,5.50
2019-04-30T01:33:55.793Z,5.50
2019-04-30T01:36:21.195Z,5.50
2019-04-30T01:38:49.043Z,5.50
2019-04-30T01:41:13.538Z,5.40
2019-04-30T01:43:38.865Z,5.40
2019-04-30T01:46:12.153Z,5.40
2019-04-30T01:48:31.234Z,5.40
2019-04-30T01:50:56.581Z,5.30
2019-04-30T01:53:21.940Z,5.30
2019-04-30T01:56:06.229Z,5.30
2019-04-30T01:58:43.014Z,5.30
2019-04-30T02:01:13.758Z,5.20
2019-04-30T02:03:40.090Z,5.30
2019-04-30T02:06:06.662Z,5.20
2019-04-30T02:08:32.002Z,5.20
2019-04-30T02:10:59.264Z,5.20
2019-04-30T02:13:24.332Z,5.10
2019-04-30T02:15:49.709Z,5.10
2019-04-30T02:18:15.066Z,5.10
2019-04-30T02:20:40.440Z,5.00
2019-04-30T02:23:05.800Z,5.00
2019-04-30T02:25:31.179Z,5.00
2019-04-30T02:27:56.515Z,5.00
2019-04-30T02:30:21.867Z,5.00
2019-04-30T02:32:52.059Z,5.00
2019-04-30T02:35:33.234Z,4.90
2019-04-30T02:38:33.735Z,4.90
2019-04-30T02:41:00.237Z,4.90
2019-04-30T02:43:29.873Z,4.80
2019-04-30T02:45:56.271Z,4.80
2019-04-30T02:48:23.567Z,4.80
2019-04-30T02:50:50.519Z,4.70
2019-04-30T02:54:12.714Z,4.70
2019-04-30T02:56:40.029Z,4.70
2019-04-30T02:59:05.527Z,4.70
2019-04-30T03:01:30.882Z,4.60
2019-04-30T03:03:56.255Z,4.60
2019-04-30T03:06:23.755Z,4.50
2019-04-30T03:08:51.038Z,4.50
2019-04-30T03:11:15.583Z,4.40
2019-04-30T03:13:42.815Z,4.40
2019-04-30T03:16:09.413Z,4.40
2019-04-30T03:18:53.977Z,4.40
2019-04-30T03:21:40.486Z,4.30
2019-04-30T03:24:05.301Z,4.30
2019-04-30T03:26:30.611Z,4.20
2019-04-30T03:28:55.959Z,4.20
2019-04-30T03:31:22.488Z,4.20
2019-04-30T03:33:52.445Z,4.20
2019-04-30T03:36:15.365Z,4.20
2019-04-30T03:38:42.800Z,4.20
2019-04-30T03:41:09.734Z,4.10
2019-04-30T03:43:34.691Z,4.10
2019-04-30T03:46:02.715Z,4.10
2019-04-30T03:48:29.304Z,4.00
2019-04-30T03:50:56.901Z,4.10
2019-04-30T03:53:21.096Z,4.00
2019-04-30T03:55:46.436Z,4.00
2019-04-30T03:58:12.899Z,4.00
2019-04-30T04:00:54.762Z,4.00
2019-04-30T04:03:21.187Z,4.00
2019-04-30T04:05:51.134Z,4.00
2019-04-30T04:08:31.190Z,3.90
2019-04-30T04:11:10.153Z,3.90
2019-04-30T04:13:35.519Z,3.90
2019-04-30T04:16:00.880Z,3.90
2019-04-30T04:18:26.248Z,3.90
2019-04-30T04:21:07.645Z,3.90
2019-04-30T04:23:21.110Z,3.90
2019-04-30T04:25:46.458Z,3.90
2019-04-30T04:28:11.814Z,4.00
2019-04-30T04:30:39.735Z,3.90
2019-04-30T04:33:04.523Z,4.00
2019-04-30T04:35:30.254Z,4.00
2019-04-30T04:37:55.905Z,4.00
2019-04-30T04:40:21.369Z,4.00
2019-04-30T04:42:49.064Z,4.10
2019-04-30T04:45:13.789Z,4.10
2019-04-30T04:47:40.227Z,4.10
2019-04-30T04:50:06.658Z,4.20
2019-04-30T04:52:32.130Z,4.20
2019-04-30T04:55:00.137Z,4.30
2019-04-30T04:57:24.468Z,4.30
2019-04-30T04:59:50.171Z,4.30
2019-04-30T05:02:49.907Z,4.40
2019-04-30T05:05:15.515Z,4.40
2019-04-30T05:07:40.870Z,4.50
2019-04-30T05:10:09.218Z,4.50
2019-04-30T05:12:37.433Z,4.60
2019-04-30T05:15:02.780Z,4.70
2019-04-30T05:17:31.988Z,4.80
2019-04-30T05:19:58.546Z,4.90
2019-04-30T05:22:23.517Z,5.00
2019-04-30T05:24:49.029Z,5.20
2019-04-30T05:27:14.754Z,5.30
2019-04-30T05:29:40.502Z,5.40
2019-04-30T05:32:06.055Z,5.50
2019-04-30T05:34:31.415Z,5.70
2019-04-30T05:36:58.502Z,5.80
2019-04-30T05:39:23.803Z,5.90
2019-04-30T05:41:49.287Z,6.10
2019-04-30T05:44:14.637Z,6.40
2019-04-30T05:46:40.150Z,6.70
2019-04-30T05:49:05.473Z,7.20
2019-04-30T05:51:30.834Z,7.50
2019-04-30T05:53:56.217Z,8.00
2019-04-30T05:56:21.578Z,8.40
2019-04-30T05:58:46.939Z,8.70
2019-04-30T06:01:12.318Z,8.90
2019-04-30T06:03:38.609Z,9.20
2019-04-30T06:06:04.838Z,9.60
2019-04-30T06:08:39.279Z,10.10
2019-04-30T06:11:10.634Z,10.60
2019-04-30T06:14:01.075Z,11.30
2019-04-30T06:16:29.680Z,11.60
2019-04-30T06:18:54.646Z,11.90
2019-04-30T06:21:21.616Z,12.40
2019-04-30T06:23:49.182Z,12.70
2019-04-30T06:26:15.168Z,12.90
2019-04-30T06:28:41.656Z,13.10
2019-04-30T06:31:09.025Z,13.50
2019-04-30T06:33:34.110Z,13.70
2019-04-30T06:36:00.487Z,14.10
2019-04-30T06:38:25.941Z,14.70
2019-04-30T06:40:51.378Z,14.80
2019-04-30T06:43:18.951Z,14.50
2019-04-30T06:45:44.514Z,14.70
2019-04-30T06:48:10.513Z,15.10
2019-04-30T06:50:36.191Z,15.50
2019-04-30T06:53:01.820Z,15.60
2019-04-30T06:55:30.602Z,15.40
2019-04-30T06:57:54.330Z,15.30
2019-04-30T07:00:32.875Z,15.20
2019-04-30T07:02:49.462Z,15.50
2019-04-30T07:05:15.077Z,16.10
2019-04-30T07:08:02.194Z,16.00
2019-04-30T07:10:25.261Z,15.90
2019-04-30T07:12:54.659Z,15.60
2019-04-30T07:15:20.714Z,15.70
2019-04-30T07:17:46.099Z,15.90
2019-04-30T07:20:11.470Z,16.00
2019-04-30T07:22:40.910Z,15.90
2019-04-30T07:25:03.879Z,15.70
2019-04-30T07:27:30.168Z,15.90
2019-04-30T07:29:56.265Z,15.90
2019-04-30T07:32:21.618Z,15.70
2019-04-30T07:34:49.294Z,16.00
2019-04-30T07:37:21.030Z,15.90
2019-04-30T07:39:42.382Z,16.10
2019-04-30T07:42:09.238Z,15.80
2019-04-30T07:44:36.715Z,15.50
2019-04-30T07:47:02.267Z,15.60
2019-04-30T07:49:46.531Z,15.80
2019-04-30T07:51:56.281Z,15.80
2019-04-30T07:54:22.084Z,15.80
2019-04-30T07:56:50.440Z,16.00
2019-04-30T07:59:14.451Z,15.90
2019-04-30T08:02:00.209Z,16.20
2019-04-30T08:04:24.769Z,16.30
2019-04-30T08:06:50.161Z,16.00
2019-04-30T08:09:15.610Z,15.90
2019-04-30T08:11:43.508Z,15.90
2019-04-30T08:14:09.826Z,16.00
2019-04-30T08:16:35.355Z,16.10
2019-04-30T08:19:00.722Z,16.50
2019-04-30T08:21:26.121Z,16.60
2019-04-30T08:23:52.538Z,16.50
2019-04-30T08:26:18.716Z,16.70
2019-04-30T08:28:44.286Z,16.60
2019-04-30T08:31:09.648Z,16.80
2019-04-30T08:33:35.023Z,16.30
2019-04-30T08:36:00.995Z,16.30
2019-04-30T08:38:26.390Z,16.20
2019-04-30T08:40:56.195Z,15.90
2019-04-30T08:43:19.853Z,16.10
2019-04-30T08:45:45.349Z,15.90
2019-04-30T08:48:10.746Z,15.80
2019-04-30T08:50:36.131Z,15.80
2019-04-30T08:53:01.576Z,15.80
2019-04-30T08:55:26.919Z,15.80
2019-04-30T08:57:52.290Z,15.90
2019-04-30T09:00:19.541Z,16.20
2019-04-30T09:02:45.067Z,16.30
2019-04-30T09:05:19.991Z,16.50
2019-04-30T09:07:45.346Z,16.70
2019-04-30T09:10:10.794Z,16.70
2019-04-30T09:12:36.174Z,16.80
2019-04-30T09:15:01.539Z,16.90
2019-04-30T09:17:27.045Z,17.00
2019-04-30T09:19:52.407Z,17.20
2019-04-30T09:22:19.517Z,17.40
2019-04-30T09:24:44.782Z,17.40
2019-04-30T09:27:10.786Z,17.70
2019-04-30T09:29:36.441Z,17.70
2019-04-30T09:32:01.803Z,17.70
2019-04-30T09:34:29.002Z,17.80
2019-04-30T09:36:55.101Z,18.00
2019-04-30T09:39:23.175Z,17.90
2019-04-30T09:41:49.616Z,18.00
2019-04-30T09:44:14.970Z,18.10
2019-04-30T09:46:40.450Z,18.40
2019-04-30T09:49:05.927Z,18.80
2019-04-30T09:51:31.977Z,18.90
2019-04-30T09:54:00.603Z,19.10
2019-04-30T09:56:25.619Z,19.10
2019-04-30T09:58:51.007Z,19.20
2019-04-30T10:01:16.354Z,19.10
2019-04-30T10:03:42.488Z,19.40
2019-04-30T10:06:08.944Z,19.50
2019-04-30T10:08:46.074Z,19.30
2019-04-30T10:11:20.543Z,19.60
2019-04-30T10:13:45.890Z,19.50
2019-04-30T10:16:21.346Z,19.60
2019-04-30T10:18:46.697Z,19.70
2019-04-30T10:21:12.166Z,19.70
2019-04-30T10:23:39.102Z,20.10
2019-04-30T10:26:04.698Z,20.30
2019-04-30T10:28:32.319Z,20.60
2019-04-30T10:30:57.694Z,20.50
2019-04-30T10:33:23.070Z,20.70
2019-04-30T10:35:49.597Z,20.70
2019-04-30T10:38:14.940Z,20.90
2019-04-30T10:40:40.369Z,21.20
2019-04-30T10:43:05.801Z,21.40
2019-04-30T10:45:31.477Z,21.30
2019-04-30T10:47:56.854Z,21.60
2019-04-30T10:50:23.014Z,21.40
2019-04-30T10:52:49.147Z,21.30
2019-04-30T10:55:14.833Z,21.60
2019-04-30T10:57:40.295Z,21.40
2019-04-30T11:00:07.872Z,21.60
2019-04-30T11:02:33.577Z,22.00
2019-04-30T11:04:59.061Z,22.10
2019-04-30T11:07:24.419Z,22.20
2019-04-30T11:09:49.777Z,22.40
2019-04-30T11:12:15.172Z,22.30
2019-04-30T11:14:40.543Z,22.40
2019-04-30T11:17:06.251Z,22.40
2019-04-30T11:19:31.918Z,22.50
2019-04-30T11:21:57.645Z,22.20
2019-04-30T11:24:30.463Z,22.00
2019-04-30T11:26:51.114Z,22.30
2019-04-30T11:29:16.996Z,22.20
2019-04-30T11:31:48.659Z,22.00
2019-04-30T11:34:15.295Z,21.90
2019-04-30T11:36:40.743Z,22.10
2019-04-30T11:39:12.777Z,22.40
2019-04-30T11:41:39.514Z,22.50
2019-04-30T11:44:05.174Z,22.50
2019-04-30T11:46:51.310Z,22.50
2019-04-30T11:49:16.738Z,22.90
2019-04-30T11:51:42.110Z,23.00
2019-04-30T11:54:08.959Z,22.80
2019-04-30T11:56:34.421Z,22.70
2019-04-30T11:58:59.802Z,22.60
2019-04-30T12:01:27.070Z,22.70
2019-04-30T12:03:52.421Z,22.90
2019-04-30T12:06:18.515Z,23.10
2019-04-30T12:09:02.042Z,23.10
2019-04-30T12:11:34.201Z,23.10
2019-04-30T12:13:59.568Z,23.10
2019-04-30T12:16:24.967Z,23.20
2019-04-30T12:18:50.331Z,23.40
2019-04-30T12:21:15.802Z,23.60
2019-04-30T12:23:41.159Z,23.60
2019-04-30T12:26:06.519Z,23.90
2019-04-30T12:28:31.907Z,23.80
2019-04-30T12:30:58.906Z,23.70
2019-04-30T12:33:24.373Z,23.70
2019-04-30T12:35:51.345Z,23.70
2019-04-30T12:38:18.937Z,23.70
2019-04-30T12:40:44.022Z,24.20
2019-04-30T12:43:09.483Z,24.30
2019-04-30T12:45:34.891Z,24.20
2019-04-30T12:48:04.700Z,24.50
2019-04-30T12:50:44.963Z,24.30
2019-04-30T12:53:19.241Z,24.00
2019-04-30T12:55:59.407Z,24.00
2019-04-30T12:58:23.647Z,24.20
2019-04-30T13:00:49.214Z,24.20
2019-04-30T13:03:14.646Z,23.90
2019-04-30T13:05:40.006Z,23.90
2019-04-30T13:08:05.711Z,24.20
2019-04-30T13:10:32.149Z,24.30
2019-04-30T13:12:58.250Z,24.30
2019-04-30T13:15:23.916Z,24.40
2019-04-30T13:17:50.139Z,24.50
2019-04-30T13:20:21.179Z,24.30
2019-04-30T13:22:44.468Z,24.70
2019-04-30T13:25:09.890Z,24.70
2019-04-30T13:27:38.606Z,24.50
2019-04-30T13:30:20.547Z,24.50
2019-04-30T13:32:52.330Z,24.50
2019-04-30T13:35:19.071Z,24.80
2019-04-30T13:37:58.874Z,24.80
2019-04-30T13:40:40.993Z,24.40
2019-04-30T13:43:06.709Z,24.40
2019-04-30T13:45:32.149Z,24.50
2019-04-30T13:47:58.899Z,24.30
2019-04-30T13:50:24.401Z,24.10
2019-04-30T13:52:49.757Z,24.00
2019-04-30T13:55:15.651Z,24.00
2019-04-30T13:57:41.042Z,23.50
2019-04-30T14:00:08.670Z,23.30
2019-04-30T14:02:37.891Z,23.10
2019-04-30T14:05:14.499Z,22.70
2019-04-30T14:08:01.714Z,22.70
2019-04-30T14:10:29.427Z,22.50
2019-04-30T14:12:57.978Z,22.60
2019-04-30T14:15:23.646Z,22.70
2019-04-30T14:17:49.466Z,22.70
2019-04-30T14:20:16.715Z,22.60
2019-04-30T14:22:42.467Z,22.70
2019-04-30T14:25:08.068Z,22.50
2019-04-30T14:27:33.433Z,22.10
2019-04-30T14:29:59.380Z,22.10
2019-04-30T14:32:24.873Z,21.90
2019-04-30T14:34:50.673Z,21.80
2019-04-30T14:37:16.243Z,21.90
2019-04-30T14:39:42.096Z,21.90
2019-04-30T14:42:10.607Z,21.70
2019-04-30T14:44:36.318Z,21.70
2019-04-30T14:47:11.640Z,21.50
2019-04-30T14:50:09.968Z,21.30
2019-04-30T14:52:41.938Z,21.30
2019-04-30T14:55:24.993Z,21.30
2019-04-30T14:58:04.414Z,21.10
2019-04-30T15:00:59.323Z,21.10
2019-04-30T15:03:27.109Z,21.00
2019-04-30T15:05:52.457Z,20.90
2019-04-30T15:08:19.409Z,20.80
2019-04-30T15:10:45.014Z,20.70
2019-04-30T15:13:10.398Z,20.60
2019-04-30T15:15:36.258Z,20.40
2019-04-30T15:18:01.699Z,20.30
2019-04-30T15:20:27.056Z,20.20
2019-04-30T15:23:02.635Z,20.10
2019-04-30T15:25:34.095Z,20.00
2019-04-30T15:27:56.074Z,20.10
2019-04-30T15:30:22.008Z,20.20
2019-04-30T15:32:49.547Z,20.10
2019-04-30T15:35:15.414Z,20.00
2019-04-30T15:37:42.770Z,20.00
2019-04-30T15:40:09.054Z,19.80
2019-04-30T15:42:36.796Z,19.80
2019-04-30T15:45:02.626Z,19.80
2019-04-30T15:47:28.777Z,19.60
2019-04-30T15:49:54.318Z,19.70
2019-04-30T15:52:20.037Z,19.70
2019-04-30T15:54:45.405Z,19.60
2019-04-30T15:57:10.801Z,19.60
2019-04-30T15:59:43.400Z,19.60
2019-04-30T16:02:53.681Z,19.50
2019-04-30T16:05:29.320Z,19.50
2019-04-30T16:08:08.798Z,19.50
2019-04-30T16:11:07.230Z,19.50
2019-04-30T16:13:37.118Z,19.50
2019-04-30T16:16:02.837Z,19.30
2019-04-30T16:18:33.594Z,19.20
2019-04-30T16:20:59.507Z,19.10
2019-04-30T16:23:25.285Z,19.10
2019-04-30T16:25:50.669Z,19.10
2019-04-30T16:28:16.036Z,19.00
2019-04-30T16:30:42.890Z,19.00
2019-04-30T16:33:09.487Z,18.90
2019-04-30T16:35:35.061Z,18.90
2019-04-30T16:38:00.439Z,18.80
2019-04-30T16:40:25.806Z,18.80
2019-04-30T16:42:51.198Z,18.70
2019-04-30T16:45:16.656Z,18.70
2019-04-30T16:47:42.038Z,18.70
2019-04-30T16:50:09.155Z,18.60
2019-04-30T16:52:34.511Z,18.60
2019-04-30T16:54:59.922Z,18.60
2019-04-30T16:57:25.270Z,18.60
2019-04-30T16:59:53.365Z,18.50
2019-04-30T17:02:19.279Z,18.40
2019-04-30T17:04:52.702Z,18.40
2019-04-30T17:07:32.118Z,18.30
2019-04-30T17:10:16.410Z,18.20
2019-04-30T17:12:51.205Z,18.20
2019-04-30T17:15:19.383Z,18.20
2019-04-30T17:17:44.958Z,18.10
2019-04-30T17:20:10.509Z,18.00
2019-04-30T17:22:35.941Z,18.00
2019-04-30T17:25:01.323Z,17.90
2019-04-30T17:27:26.742Z,17.90
2019-04-30T17:29:52.135Z,17.80
2019-04-30T17:32:18.662Z,17.70
2019-04-30T17:34:44.229Z,17.70
2019-04-30T17:37:09.586Z,17.60
2019-04-30T17:39:34.933Z,17.50
2019-04-30T17:42:00.337Z,17.40
2019-04-30T17:44:25.762Z,17.40
2019-04-30T17:46:51.154Z,17.30
2019-04-30T17:49:16.538Z,17.20
2019-04-30T17:51:41.972Z,17.10
2019-04-30T17:54:16.361Z,17.00
2019-04-30T17:56:42.458Z,17.00
2019-04-30T17:59:07.953Z,16.90
2019-04-30T18:01:33.512Z,16.80
2019-04-30T18:03:58.951Z,16.70
2019-04-30T18:06:24.429Z,16.50
2019-04-30T18:08:49.890Z,16.40
2019-04-30T18:11:15.244Z,16.30
2019-04-30T18:13:40.699Z,16.20
2019-04-30T18:16:06.222Z,16.10
2019-04-30T18:18:55.436Z,16.00
2019-04-30T18:21:30.375Z,15.90
2019-04-30T18:24:19.423Z,15.80
2019-04-30T18:27:08.844Z,15.60
2019-04-30T18:29:37.439Z,15.50
2019-04-30T18:32:03.195Z,15.30
2019-04-30T18:34:29.237Z,15.20
2019-04-30T18:36:55.677Z,15.10
2019-04-30T18:39:23.569Z,14.90
2019-04-30T18:41:51.305Z,14.80
2019-04-30T18:44:19.643Z,14.70
2019-04-30T18:46:49.074Z,14.50
2019-04-30T18:49:14.619Z,14.40
2019-04-30T18:51:42.720Z,14.30
2019-04-30T18:54:07.150Z,14.20
2019-04-30T18:56:32.507Z,14.10
2019-04-30T18:58:58.635Z,13.90
2019-04-30T19:01:24.146Z,13.80
2019-04-30T19:03:49.691Z,13.70
2019-04-30T19:06:23.911Z,13.60
2019-04-30T19:08:58.474Z,13.50
2019-04-30T19:11:29.384Z,13.40
2019-04-30T19:14:16.705Z,13.30
2019-04-30T19:17:02.065Z,13.10
2019-04-30T19:19:49.498Z,13.10
2019-04-30T19:22:14.866Z,12.90
2019-04-30T19:24:52.203Z,12.80
2019-04-30T19:27:08.658Z,12.70
2019-04-30T19:29:34.223Z,12.60
2019-04-30T19:31:59.615Z,12.50
2019-04-30T19:34:25.746Z,12.40
2019-04-30T19:36:51.154Z,12.30
2019-04-30T19:39:19.516Z,12.20
2019-04-30T19:41:44.965Z,12.20
2019-04-30T19:44:10.822Z,12.00
2019-04-30T19:46:36.586Z,12.00
2019-04-30T19:49:02.001Z,11.90
2019-04-30T19:51:29.510Z,11.80
2019-04-30T19:53:54.422Z,11.80
2019-04-30T19:56:20.565Z,11.60
2019-04-30T19:58:59.262Z,11.60
2019-04-30T20:01:14.272Z,11.50
2019-04-30T20:03:40.721Z,11.40
2019-04-30T20:06:06.297Z,11.40
2019-04-30T20:08:31.662Z,11.30
2019-04-30T20:10:59.163Z,11.30
2019-04-30T20:13:33.818Z,11.20
2019-04-30T20:15:52.194Z,11.10
2019-04-30T20:18:19.093Z,11.00
2019-04-30T20:20:46.967Z,11.00
2019-04-30T20:23:12.359Z,11.00
2019-04-30T20:25:37.731Z,10.90
2019-04-30T20:28:03.245Z,10.90
2019-04-30T20:30:29.210Z,10.90
2019-04-30T20:32:54.769Z,10.80
2019-04-30T20:35:20.160Z,10.80
2019-04-30T20:38:03.338Z,10.80
2019-04-30T20:40:43.085Z,10.80
2019-04-30T20:42:58.576Z,10.90
2019-04-30T20:45:25.078Z,10.80
2019-04-30T20:47:50.522Z,10.80
2019-04-30T20:50:17.021Z,10.90
2019-04-30T20:52:42.426Z,10.90
2019-04-30T20:55:07.903Z,10.90
2019-04-30T20:57:33.267Z,10.90
2019-04-30T20:59:59.954Z,10.90
2019-04-30T21:02:25.494Z,10.90
2019-04-30T21:04:50.855Z,10.90
2019-04-30T21:07:16.221Z,10.90
2019-04-30T21:09:41.653Z,11.00
2019-04-30T21:12:08.867Z,11.00
2019-04-30T21:14:34.019Z,11.00
2019-04-30T21:16:59.759Z,11.00
2019-04-30T21:19:25.466Z,11.00
2019-04-30T21:21:51.067Z,11.00
2019-04-30T21:24:16.437Z,11.00
2019-04-30T21:26:41.817Z,11.00
2019-04-30T21:29:13.660Z,11.00
2019-04-30T21:32:03.067Z,11.10
2019-04-30T21:34:46.057Z,11.10
2019-04-30T21:37:12.175Z,11.10
2019-04-30T21:39:37.670Z,11.10
2019-04-30T21:42:03.026Z,11.10
2019-04-30T21:44:28.398Z,11.10
2019-04-30T21:46:53.802Z,11.10
2019-04-30T21:49:19.148Z,11.20
2019-04-30T21:51:44.562Z,11.20
2019-04-30T21:54:10.083Z,11.20
2019-04-30T21:56:35.435Z,11.20
2019-04-30T21:59:00.777Z,11.30
2019-04-30T22:01:27.191Z,11.20
2019-04-30T22:03:53.079Z,11.30
2019-04-30T22:06:19.569Z,11.30
2019-04-30T22:08:48.494Z,11.30
2019-04-30T22:11:13.469Z,11.30
2019-04-30T22:13:42.983Z,11.30
2019-04-30T22:16:08.606Z,11.30
2019-04-30T22:18:35.735Z,11.30
2019-04-30T22:21:01.102Z,11.30
2019-04-30T22:23:26.503Z,11.30
2019-04-30T22:25:52.936Z,11.30
2019-04-30T22:28:18.294Z,11.40
2019-04-30T22:30:43.782Z,11.40
2019-04-30T22:33:10.897Z,11.40
2019-04-30T22:35:48.893Z,11.40
2019-04-30T22:38:18.953Z,11.40
2019-04-30T22:40:45.067Z,11.40
2019-04-30T22:43:11.890Z,11.40
2019-04-30T22:45:52.022Z,11.40
2019-04-30T22:48:18.722Z,11.40
2019-04-30T22:50:45.351Z,11.50
2019-04-30T22:53:10.742Z,11.50
2019-04-30T22:55:36.148Z,11.50
2019-04-30T22:58:02.388Z,11.50
2019-04-30T23:00:43.396Z,11.50
2019-04-30T23:03:12.198Z,11.60
2019-04-30T23:05:37.626Z,11.60
2019-04-30T23:08:03.137Z,11.60
2019-04-30T23:10:28.501Z,11.60
2019-04-30T23:12:54.250Z,11.60
2019-04-30T23:15:21.522Z,11.60
2019-04-30T23:17:46.887Z,11.60
2019-04-30T23:20:12.856Z,11.60
2019-04-30T23:22:38.268Z,11.60
2019-04-30T23:25:03.667Z,11.70
2019-04-30T23:27:29.050Z,11.70
2019-04-30T23:30:03.097Z,11.70
2019-04-30T23:32:21.499Z,11.70
2019-04-30T23:34:46.854Z,11.70
2019-04-30T23:37:12.605Z,11.70
2019-04-30T23:39:38.001Z,11.80
2019-04-30T23:42:03.339Z,11.80
2019-04-30T23:44:28.737Z,11.80
2019-04-30T23:46:54.119Z,11.80
2019-04-30T23:49:19.466Z,11.80
2019-04-30T23:51:44.865Z,11.80
2019-04-30T23:54:10.708Z,11.80
2019-04-30T23:56:36.055Z,11.90
2019-04-30T23:59:01.548Z,11.90
